地図

経路データ

SID SEASON NUMBER BASIN SUBBASIN NAME ISO_TIME NATURE LAT LON WMO_WIND WMO_PRES WMO_AGENCY TRACK_TYPE DIST2LAND LANDFALL IFLAG USA_AGENCY USA_ATCF_ID USA_LAT USA_LON USA_RECORD USA_STATUS USA_WIND USA_PRES USA_SSHS USA_R34_NE USA_R34_SE USA_R34_SW USA_R34_NW USA_R50_NE USA_R50_SE USA_R50_SW USA_R50_NW USA_R64_NE USA_R64_SE USA_R64_SW USA_R64_NW USA_POCI USA_ROCI USA_RMW USA_EYE TOKYO_LAT TOKYO_LON TOKYO_GRADE TOKYO_WIND TOKYO_PRES TOKYO_R50_DIR TOKYO_R50_LONG TOKYO_R50_SHORT TOKYO_R30_DIR TOKYO_R30_LONG TOKYO_R30_SHORT TOKYO_LAND CMA_LAT CMA_LON CMA_CAT CMA_WIND CMA_PRES HKO_LAT HKO_LON HKO_CAT HKO_WIND HKO_PRES NEWDELHI_LAT NEWDELHI_LON NEWDELHI_GRADE NEWDELHI_WIND NEWDELHI_PRES NEWDELHI_CI NEWDELHI_DP NEWDELHI_POCI REUNION_LAT REUNION_LON REUNION_TYPE REUNION_WIND REUNION_PRES REUNION_TNUM REUNION_CI REUNION_RMW REUNION_R34_NE REUNION_R34_SE REUNION_R34_SW REUNION_R34_NW REUNION_R50_NE REUNION_R50_SE REUNION_R50_SW REUNION_R50_NW REUNION_R64_NE REUNION_R64_SE REUNION_R64_SW REUNION_R64_NW BOM_LAT BOM_LON BOM_TYPE BOM_WIND BOM_PRES BOM_TNUM BOM_CI BOM_RMW BOM_R34_NE BOM_R34_SE BOM_R34_SW BOM_R34_NW BOM_R50_NE BOM_R50_SE BOM_R50_SW BOM_R50_NW BOM_R64_NE BOM_R64_SE BOM_R64_SW BOM_R64_NW BOM_ROCI BOM_POCI BOM_EYE BOM_POS_METHOD BOM_PRES_METHOD NADI_LAT NADI_LON NADI_CAT NADI_WIND NADI_PRES WELLINGTON_LAT WELLINGTON_LON WELLINGTON_WIND WELLINGTON_PRES DS824_LAT DS824_LON DS824_STAGE DS824_WIND DS824_PRES TD9636_LAT TD9636_LON TD9636_STAGE TD9636_WIND TD9636_PRES TD9635_LAT TD9635_LON TD9635_WIND TD9635_PRES TD9635_ROCI NEUMANN_LAT NEUMANN_LON NEUMANN_CLASS NEUMANN_WIND NEUMANN_PRES MLC_LAT MLC_LON MLC_CLASS MLC_WIND MLC_PRES USA_GUST BOM_GUST BOM_GUST_PER REUNION_GUST REUNION_GUST_PER USA_SEAHGT USA_SEARAD_NE USA_SEARAD_SE USA_SEARAD_SW USA_SEARAD_NW STORM_SPEED STORM_DIR
1877214N29286 1877 18 NA NA NOT_NAMED 1877-08-01 12:00:00 TS 28.6000 -74.5000 main 522 522 _____________O -1 28.6000 -74.5000 TD 25 7 0
1877214N29286 1877 18 NA NA NOT_NAMED 1877-08-01 15:00:00 TS 28.9525 -74.4926 main 556 556 _____________P -1 28.9525 -74.4926 TD 27 7 0
1877214N29286 1877 18 NA NA NOT_NAMED 1877-08-01 18:00:00 TS 29.3000 -74.5000 main 582 582 _____________O -1 29.3000 -74.5000 TD 30 7 0
1877214N29286 1877 18 NA NA NOT_NAMED 1877-08-01 21:00:00 TS 29.6425 -74.5222 main 582 545 _____________P -1 29.6425 -74.5222 TD 30 7 0
1877214N29286 1877 18 NA NA NOT_NAMED 1877-08-02 00:00:00 TS 30.0000 -74.5000 main 545 516 _____________O -1 30.0000 -74.5000 TD 30 8 10
1877214N29286 1877 18 NA NA NOT_NAMED 1877-08-02 03:00:00 TS 30.4001 -74.3653 main 516 484 _____________P -1 30.4001 -74.3653 TD 30 8 18
1877214N29286 1877 18 NA NA NOT_NAMED 1877-08-02 06:00:00 TS 30.8000 -74.2000 main 484 459 _____________O -1 30.8000 -74.2000 TD 30 8 17
1877214N29286 1877 18 NA NA NOT_NAMED 1877-08-02 09:00:00 TS 31.1574 -74.0997 main 449 425 _____________P -1 31.1574 -74.0997 TD 32 7 14
1877214N29286 1877 18 NA NA NOT_NAMED 1877-08-02 12:00:00 TS 31.5000 -74.0000 main 425 403 _____________O -1 31.5000 -74.0000 TS 35 7 17
1877214N29286 1877 18 NA NA NOT_NAMED 1877-08-02 15:00:00 TS 31.8425 -73.8500 main 403 380 _____________P -1 31.8425 -73.8500 TS 37 7 20
1877214N29286 1877 18 NA NA NOT_NAMED 1877-08-02 18:00:00 TS 32.2000 -73.7000 main 380 363 _____________O -1 32.2000 -73.7000 TS 40 7 14
1877214N29286 1877 18 NA NA NOT_NAMED 1877-08-02 21:00:00 TS 32.5623 -73.6290 main 355 333 _____________P -1 32.5623 -73.6290 TS 42 8 12
1877214N29286 1877 18 NA NA NOT_NAMED 1877-08-03 00:00:00 TS 33.0000 -73.5000 main 333 316 _____________O -1 33.0000 -73.5000 TS 45 11 18
1877214N29286 1877 18 NA NA NOT_NAMED 1877-08-03 03:00:00 TS 33.5622 -73.2318 main 319 302 _____________P -1 33.5622 -73.2318 TS 47 13 26
1877214N29286 1877 18 NA NA NOT_NAMED 1877-08-03 06:00:00 TS 34.2000 -72.8000 main 303 298 _____________O -1 34.2000 -72.8000 TS 50 15 33
1877214N29286 1877 18 NA NA NOT_NAMED 1877-08-03 09:00:00 TS 34.8268 -72.2458 main 318 314 _____________P -1 34.8268 -72.2458 TS 55 17 39
1877214N29286 1877 18 NA NA NOT_NAMED 1877-08-03 12:00:00 TS 35.5000 -71.5000 main 362 362 _____________O -1 35.5000 -71.5000 TS 60 18 44
1877214N29286 1877 18 NA NA NOT_NAMED 1877-08-03 15:00:00 TS 36.1166 -70.7250 main 432 432 _____________P -1 36.1166 -70.7250 TS 55 22 47
1877214N29286 1877 18 NA NA NOT_NAMED 1877-08-03 18:00:00 TS 37.0000 -69.5000 main 500 439 _____________O -1 37.0000 -69.5000 TS 50 34 51
1877214N29286 1877 18 NA NA NOT_NAMED 1877-08-03 21:00:00 TS 38.2811 -67.4323 main 438 400 _____________P -1 38.2811 -67.4323 TS 47 46 50
1877214N29286 1877 18 NA NA NOT_NAMED 1877-08-04 00:00:00 ET 40.0000 -65.0000 main 390 256 _____________O -1 40.0000 -65.0000 EX 45 53 43
1877214N29286 1877 18 NA NA NOT_NAMED 1877-08-04 03:00:00 ET 42.1392 -62.7205 main 254 97 _____________P -1 42.1392 -62.7205 EX 45 56 37
1877214N29286 1877 18 NA NA NOT_NAMED 1877-08-04 06:00:00 ET 44.5000 -60.5000 main 90 _____________O -1 44.5000 -60.5000 EX 45 57 34

IBTrACS Databaseについて

本データベースは、米国NOAAが公開する1842年以降の世界の熱帯低気圧のベストトラックデータアーカイブInternational Best Track Archive for Climate Stewardship (IBTrACS)を、ウェブで閲覧しやすい形式に変換したものです。

最終更新日:2021-12-06